Terminal Aerodrome Forecast
Issued by NWS

Home | Current Version | Previous Version | Graphics & Text | Print | Product List | Glossary Off
Versions: 1 2 3 4 5 6 7 8 9 10 11 12 13 14

000
FTUS43 KGRB 311700 RRA
TAFCWA
TAF
KCWA 311741Z 3118/0118 27009KT P6SM VCSH SCT030 BKN060
      TEMPO 3118/3121 BKN030
     FM312100 29010KT P6SM VCTS BKN035CB
     FM010200 VRB03KT P6SM SCT080
     FM010800 VRB02KT 3SM BR SCT250
     FM011200 26004KT P6SM SCT030 BKN080=

USA.gov is the U.S. government's official web portal to all federal, state and local government web resources and services.